Terminal Aerodrome Forecast
Issued by NWS

Home | Current Version | Previous Version | Text Only | Print | Product List | Glossary On
Versions: 1 2 3 4 5 6 7 8 9 10 11 12 13 14
000
FTUS46 KSEW 241100
TAFOLM
TAF
KOLM 241128Z 2412/2512 15005KT P6SM -RA SCT020 BKN045 OVC070
      TEMPO 2412/2416 BKN020 OVC045
     FM241900 25008KT P6SM -SHRA BKN025 OVC045
     FM250100 23008KT P6SM SCT025 BKN050=

USA.gov is the U.S. government's official web portal to all federal, state and local government web resources and services.